createdAt,value
2019-02-23T00:01:05.741Z,71.80
2019-02-23T00:03:34.039Z,72.00
2019-02-23T00:06:02.321Z,72.00
2019-02-23T00:08:30.771Z,71.90
2019-02-23T00:10:59.111Z,71.90
2019-02-23T00:13:27.395Z,72.20
2019-02-23T00:15:55.886Z,72.80
2019-02-23T00:18:24.170Z,72.70
2019-02-23T00:20:52.517Z,73.00
2019-02-23T00:23:20.815Z,73.00
2019-02-23T00:25:49.168Z,72.50
2019-02-23T00:28:19.503Z,72.60
2019-02-23T00:30:47.831Z,73.50
2019-02-23T00:33:18.318Z,72.90
2019-02-23T00:35:46.732Z,73.40
2019-02-23T00:38:15.119Z,74.40
2019-02-23T00:40:44.296Z,73.80
2019-02-23T00:43:12.699Z,73.90
2019-02-23T00:45:41.066Z,73.90
2019-02-23T00:48:09.439Z,74.70
2019-02-23T00:50:37.790Z,74.40
2019-02-23T00:53:06.199Z,74.70
2019-02-23T00:55:34.479Z,74.70
2019-02-23T00:58:02.774Z,74.20
2019-02-23T01:00:31.223Z,74.30
2019-02-23T01:02:59.578Z,75.00
2019-02-23T01:05:27.916Z,75.00
2019-02-23T01:07:56.236Z,74.90
2019-02-23T01:10:24.587Z,75.30
2019-02-23T01:12:53.036Z,76.20
2019-02-23T01:15:21.364Z,77.20
2019-02-23T01:17:49.784Z,77.70
2019-02-23T01:20:18.263Z,77.70
2019-02-23T01:22:46.599Z,77.20
2019-02-23T01:25:16.499Z,77.00
2019-02-23T01:27:44.787Z,76.70
2019-02-23T01:30:13.200Z,76.50
2019-02-23T01:32:41.841Z,77.20
2019-02-23T01:35:10.208Z,76.70
2019-02-23T01:37:38.593Z,77.70
2019-02-23T01:40:11.869Z,76.80
2019-02-23T01:42:40.411Z,76.80
2019-02-23T01:45:09.019Z,76.20
2019-02-23T01:47:37.451Z,76.20
2019-02-23T01:50:06.977Z,76.80
2019-02-23T01:52:34.683Z,76.40
2019-02-23T01:55:03.114Z,76.60
2019-02-23T01:57:31.383Z,76.80
2019-02-23T01:59:59.696Z,76.90
2019-02-23T02:02:27.987Z,77.10
2019-02-23T02:04:56.263Z,77.20
2019-02-23T02:07:24.569Z,77.40
2019-02-23T02:09:52.851Z,77.40
2019-02-23T02:12:21.683Z,77.80
2019-02-23T02:14:50.012Z,78.60
2019-02-23T02:17:18.447Z,78.20
2019-02-23T02:19:46.800Z,78.40
2019-02-23T02:22:15.107Z,78.30
2019-02-23T02:24:43.388Z,78.20
2019-02-23T02:27:11.747Z,78.70
2019-02-23T02:29:40.084Z,79.20
2019-02-23T02:32:08.431Z,79.50
2019-02-23T02:34:36.707Z,78.30
2019-02-23T02:37:05.029Z,78.00
2019-02-23T02:39:33.387Z,77.70
2019-02-23T02:42:01.664Z,77.70
2019-02-23T02:44:30.098Z,77.50
2019-02-23T02:46:58.382Z,77.10
2019-02-23T02:49:26.746Z,77.10
2019-02-23T02:51:55.078Z,77.70
2019-02-23T02:54:23.425Z,77.20
2019-02-23T02:56:51.782Z,77.40
2019-02-23T02:59:20.092Z,77.90
2019-02-23T03:01:48.444Z,77.80
2019-02-23T03:04:16.811Z,77.90
2019-02-23T03:06:47.024Z,78.10
2019-02-23T03:09:15.364Z,78.60
2019-02-23T03:11:43.643Z,79.60
2019-02-23T03:14:12.040Z,80.00
2019-02-23T03:16:40.392Z,80.70
2019-02-23T03:19:08.743Z,80.70
2019-02-23T03:21:37.075Z,80.20
2019-02-23T03:24:05.427Z,79.70
2019-02-23T03:26:33.717Z,79.70
2019-02-23T03:29:02.105Z,79.60
2019-02-23T03:31:30.458Z,79.30
2019-02-23T03:33:58.806Z,79.20
2019-02-23T03:36:27.202Z,79.00
2019-02-23T03:38:55.500Z,79.20
2019-02-23T03:41:23.859Z,79.50
2019-02-23T03:43:52.265Z,79.60
2019-02-23T03:46:20.811Z,80.50
2019-02-23T03:48:49.122Z,80.30
2019-02-23T03:51:17.444Z,80.90
2019-02-23T03:53:45.719Z,81.30
2019-02-23T03:56:14.002Z,81.20
2019-02-23T03:58:42.316Z,81.10
2019-02-23T04:01:10.668Z,80.80
2019-02-23T04:03:38.951Z,81.70
2019-02-23T04:06:07.851Z,82.60
2019-02-23T04:08:36.447Z,82.40
2019-02-23T04:11:04.807Z,82.90
2019-02-23T04:13:33.125Z,82.60
2019-02-23T04:16:01.423Z,82.30
2019-02-23T04:18:29.779Z,83.20
2019-02-23T04:21:01.684Z,82.90
2019-02-23T04:23:28.087Z,83.50
2019-02-23T04:25:56.379Z,82.30
2019-02-23T04:28:24.686Z,82.60
2019-02-23T04:30:52.976Z,82.60
2019-02-23T04:33:21.255Z,82.60
2019-02-23T04:35:49.572Z,82.40
2019-02-23T04:38:18.014Z,81.90
2019-02-23T04:40:46.316Z,81.80
2019-02-23T04:43:14.701Z,81.90
2019-02-23T04:45:42.976Z,82.50
2019-02-23T04:48:11.978Z,82.70
2019-02-23T04:50:40.452Z,82.80
2019-02-23T04:53:08.819Z,82.00
2019-02-23T04:55:37.174Z,82.10
2019-02-23T04:58:05.587Z,81.50
2019-02-23T05:00:33.884Z,81.90
2019-02-23T05:03:02.163Z,81.40
2019-02-23T05:05:30.495Z,80.80
2019-02-23T05:07:58.794Z,81.30
2019-02-23T05:10:27.179Z,81.50
2019-02-23T05:12:55.575Z,81.40
2019-02-23T05:15:23.852Z,81.10
2019-02-23T05:17:52.127Z,81.20
2019-02-23T05:20:20.472Z,81.20
2019-02-23T05:22:48.760Z,82.20
2019-02-23T05:25:17.107Z,82.60
2019-02-23T05:27:45.509Z,83.30
2019-02-23T05:30:13.856Z,82.60
2019-02-23T05:32:42.145Z,82.30
2019-02-23T05:35:14.073Z,82.30
2019-02-23T05:37:42.423Z,82.00
2019-02-23T05:40:12.056Z,82.50
2019-02-23T05:42:40.475Z,82.30
2019-02-23T05:45:10.590Z,82.20
2019-02-23T05:47:38.932Z,82.00
2019-02-23T05:50:09.534Z,82.10
2019-02-23T05:52:37.811Z,82.60
2019-02-23T05:55:06.177Z,83.00
2019-02-23T05:57:34.571Z,83.70
2019-02-23T06:00:02.999Z,83.50
2019-02-23T06:02:31.367Z,83.50
2019-02-23T06:04:59.759Z,83.20
2019-02-23T06:07:28.040Z,83.10
2019-02-23T06:09:56.311Z,82.70
2019-02-23T06:12:24.659Z,83.30
2019-02-23T06:14:52.936Z,83.20
2019-02-23T06:17:21.219Z,83.50
2019-02-23T06:19:49.534Z,84.10
2019-02-23T06:22:17.882Z,83.10
2019-02-23T06:24:46.171Z,82.50
2019-02-23T06:27:14.532Z,83.00
2019-02-23T06:29:43.003Z,82.90
2019-02-23T06:32:11.352Z,82.60
2019-02-23T06:34:39.955Z,81.20
2019-02-23T06:37:08.243Z,81.60
2019-02-23T06:39:36.526Z,80.60
2019-02-23T06:42:04.903Z,80.20
2019-02-23T06:44:33.179Z,80.20
2019-02-23T06:47:01.461Z,79.70
2019-02-23T06:49:29.766Z,80.20
2019-02-23T06:52:04.216Z,79.10
2019-02-23T06:54:28.110Z,78.60
2019-02-23T06:56:56.485Z,79.10
2019-02-23T06:59:24.762Z,77.70
2019-02-23T07:01:53.117Z,76.60
2019-02-23T07:04:21.445Z,76.10
2019-02-23T07:06:49.766Z,75.30
2019-02-23T07:09:18.054Z,74.70
2019-02-23T07:11:46.443Z,73.10
2019-02-23T07:14:14.723Z,72.40
2019-02-23T07:16:43.005Z,72.30
2019-02-23T07:19:11.404Z,72.90
2019-02-23T07:21:39.828Z,73.20
2019-02-23T07:24:08.119Z,71.80
2019-02-23T07:26:36.444Z,72.20
2019-02-23T07:29:04.798Z,70.90
2019-02-23T07:31:33.158Z,70.80
2019-02-23T07:34:01.479Z,69.70
2019-02-23T07:36:29.873Z,69.10
2019-02-23T07:38:59.792Z,68.10
2019-02-23T07:41:28.094Z,68.70
2019-02-23T07:43:57.286Z,68.30
2019-02-23T07:46:25.559Z,68.80
2019-02-23T07:48:53.891Z,68.00
2019-02-23T07:51:22.178Z,66.30
2019-02-23T07:53:51.388Z,64.60
2019-02-23T07:56:19.783Z,64.10
2019-02-23T07:58:48.073Z,63.60
2019-02-23T08:01:16.486Z,62.40
2019-02-23T08:03:44.796Z,61.50
2019-02-23T08:06:13.071Z,60.80
2019-02-23T08:08:41.399Z,60.60
2019-02-23T08:11:09.825Z,59.70
2019-02-23T08:13:40.544Z,58.90
2019-02-23T08:16:08.263Z,58.60
2019-02-23T08:18:36.726Z,53.60
2019-02-23T08:21:05.075Z,51.80
2019-02-23T08:23:33.431Z,49.30
2019-02-23T08:26:01.739Z,46.30
2019-02-23T08:28:30.063Z,46.40
2019-02-23T08:30:58.335Z,45.60
2019-02-23T08:33:26.660Z,45.40
2019-02-23T08:35:57.383Z,47.00
2019-02-23T08:38:25.731Z,48.30
2019-02-23T08:40:54.287Z,49.50
2019-02-23T08:43:24.614Z,49.30
2019-02-23T08:45:53.648Z,49.80
2019-02-23T08:48:21.951Z,46.40
2019-02-23T08:50:50.318Z,44.60
2019-02-23T08:53:18.677Z,44.40
2019-02-23T08:55:47.188Z,42.30
2019-02-23T08:58:15.539Z,41.40
2019-02-23T09:00:43.900Z,40.80
2019-02-23T09:03:12.203Z,40.80
2019-02-23T09:05:40.478Z,39.90
2019-02-23T09:08:10.384Z,36.70
2019-02-23T09:10:38.819Z,35.40
2019-02-23T09:13:08.867Z,33.40
2019-02-23T09:15:37.238Z,30.00
2019-02-23T09:18:05.643Z,27.90
2019-02-23T09:20:33.933Z,25.50
2019-02-23T09:23:02.222Z,25.30
2019-02-23T09:25:30.615Z,22.50
2019-02-23T09:27:58.895Z,21.60
2019-02-23T09:30:27.331Z,22.30
2019-02-23T09:32:55.643Z,20.20
2019-02-23T09:35:23.915Z,21.80
2019-02-23T09:37:52.202Z,24.70
2019-02-23T09:40:20.883Z,27.30
2019-02-23T09:42:49.186Z,29.00
2019-02-23T09:45:17.463Z,30.00
2019-02-23T09:47:45.834Z,27.80
2019-02-23T09:50:14.175Z,27.10
2019-02-23T09:52:42.444Z,26.20
2019-02-23T09:55:10.855Z,26.20
2019-02-23T09:57:39.500Z,24.60
2019-02-23T10:00:11.804Z,23.40
2019-02-23T10:02:40.513Z,22.80
2019-02-23T10:05:09.438Z,22.70
2019-02-23T10:07:37.793Z,20.90
2019-02-23T10:10:08.779Z,21.00
2019-02-23T10:12:37.126Z,23.00
2019-02-23T10:15:10.139Z,22.30
2019-02-23T10:17:38.455Z,20.70
2019-02-23T10:20:14.211Z,22.50
2019-02-23T10:22:42.631Z,22.40
2019-02-23T10:25:10.982Z,23.00
2019-02-23T10:27:39.334Z,21.60
2019-02-23T10:30:12.822Z,21.40
2019-02-23T10:32:41.179Z,22.70
2019-02-23T10:35:11.292Z,23.00
2019-02-23T10:37:39.612Z,22.70
2019-02-23T10:40:10.304Z,23.10
2019-02-23T10:42:38.595Z,23.50
2019-02-23T10:45:11.588Z,23.40
2019-02-23T10:47:39.951Z,22.40
2019-02-23T10:50:12.604Z,25.00
2019-02-23T10:52:40.930Z,23.70
2019-02-23T10:55:13.717Z,24.80
2019-02-23T10:57:42.072Z,25.90
2019-02-23T11:00:18.109Z,26.10
2019-02-23T11:02:46.491Z,26.40
2019-02-23T11:05:15.131Z,24.80
2019-02-23T11:07:43.452Z,24.00
2019-02-23T11:10:11.831Z,23.10
2019-02-23T11:12:40.189Z,23.60
2019-02-23T11:15:16.641Z,24.40
2019-02-23T11:17:44.984Z,26.00
2019-02-23T11:20:13.336Z,27.80
2019-02-23T11:22:41.718Z,28.70
2019-02-23T11:25:11.767Z,29.50
2019-02-23T11:27:40.122Z,30.90
2019-02-23T11:30:13.952Z,32.30
2019-02-23T11:32:42.377Z,32.60
2019-02-23T11:35:17.342Z,34.10
2019-02-23T11:37:45.502Z,33.60
2019-02-23T11:40:15.183Z,33.50
2019-02-23T11:42:42.822Z,33.70
2019-02-23T11:45:11.873Z,33.90
2019-02-23T11:47:40.224Z,33.30
2019-02-23T11:50:10.130Z,33.90
2019-02-23T11:52:39.489Z,33.80
2019-02-23T11:55:07.996Z,35.10
2019-02-23T11:57:36.345Z,35.00
2019-02-23T12:00:07.690Z,34.00
2019-02-23T12:02:36.346Z,32.30
2019-02-23T12:05:04.800Z,33.00
2019-02-23T12:07:33.248Z,32.70
2019-02-23T12:10:01.694Z,30.90
2019-02-23T12:12:30.111Z,30.00
2019-02-23T12:14:58.510Z,29.10
2019-02-23T12:17:26.860Z,28.10
2019-02-23T12:19:55.434Z,27.50
2019-02-23T12:22:23.857Z,26.70
2019-02-23T12:24:52.141Z,26.50
2019-02-23T12:27:23.581Z,26.80
2019-02-23T12:29:51.957Z,26.10
2019-02-23T12:32:20.375Z,25.90
2019-02-23T12:34:48.712Z,25.40
2019-02-23T12:37:17.017Z,23.80
2019-02-23T12:39:45.348Z,24.70
2019-02-23T12:42:13.703Z,24.60
2019-02-23T12:44:42.041Z,25.90
2019-02-23T12:47:10.324Z,26.10
2019-02-23T12:49:38.594Z,27.40
2019-02-23T12:52:06.899Z,26.10
2019-02-23T12:54:35.202Z,25.80
2019-02-23T12:57:03.480Z,24.80
2019-02-23T12:59:31.863Z,24.10
2019-02-23T13:02:00.206Z,22.40
2019-02-23T13:04:28.739Z,23.00
2019-02-23T13:06:57.124Z,23.70
2019-02-23T13:09:28.017Z,24.10
2019-02-23T13:12:08.142Z,24.60
2019-02-23T13:14:43.196Z,24.00
2019-02-23T13:17:36.175Z,24.90
2019-02-23T13:20:07.900Z,23.80
2019-02-23T13:22:45.695Z,23.10
2019-02-23T13:25:26.513Z,23.00
2019-02-23T13:28:18.080Z,23.90
2019-02-23T13:30:52.624Z,22.90
2019-02-23T13:33:33.699Z,23.10
2019-02-23T13:36:13.891Z,21.90
2019-02-23T13:39:14.404Z,21.80
2019-02-23T13:41:49.171Z,20.50
2019-02-23T13:44:42.140Z,20.50
2019-02-23T13:47:36.732Z,20.00
2019-02-23T13:50:18.951Z,20.20
2019-02-23T13:52:56.070Z,21.40
2019-02-23T13:56:01.147Z,20.50
2019-02-23T13:58:32.735Z,20.20
2019-02-23T14:01:16.296Z,19.80
2019-02-23T14:04:11.586Z,18.80
2019-02-23T14:07:06.346Z,19.40
2019-02-23T14:09:55.024Z,19.80
2019-02-23T14:12:41.047Z,19.30
2019-02-23T14:15:15.395Z,19.20
2019-02-23T14:17:55.878Z,20.30
2019-02-23T14:20:48.767Z,19.50
2019-02-23T14:23:20.343Z,19.40
2019-02-23T14:25:51.901Z,18.90
2019-02-23T14:28:32.610Z,18.70
2019-02-23T14:31:13.086Z,18.40
2019-02-23T14:34:15.023Z,18.90
2019-02-23T14:36:52.588Z,19.50
2019-02-23T14:39:42.186Z,20.20
2019-02-23T14:42:14.282Z,19.80
2019-02-23T14:44:54.600Z,19.80
2019-02-23T14:47:34.864Z,19.40
2019-02-23T14:50:33.595Z,19.70
2019-02-23T14:53:30.552Z,23.30
2019-02-23T14:56:07.875Z,25.70
2019-02-23T14:58:48.325Z,26.80
2019-02-23T15:01:38.135Z,27.10
2019-02-23T15:04:41.715Z,28.10
2019-02-23T15:07:25.548Z,28.90
2019-02-23T15:10:24.550Z,29.30
2019-02-23T15:13:21.555Z,29.80
2019-02-23T15:16:02.228Z,30.60
2019-02-23T15:18:43.135Z,30.80
2019-02-23T15:21:34.332Z,30.80
2019-02-23T15:24:15.134Z,31.20
2019-02-23T15:26:52.667Z,31.80
2019-02-23T15:29:32.897Z,32.70
2019-02-23T15:32:23.811Z,34.20
2019-02-23T15:35:10.437Z,34.20
2019-02-23T15:37:57.016Z,34.70
2019-02-23T15:40:30.408Z,34.60
2019-02-23T15:43:17.096Z,35.00
2019-02-23T15:45:57.703Z,35.00
2019-02-23T15:48:47.260Z,35.70
2019-02-23T15:51:16.043Z,35.30
2019-02-23T15:53:44.377Z,36.90
2019-02-23T15:56:12.753Z,37.90
2019-02-23T15:58:43.994Z,37.70
2019-02-23T16:01:12.372Z,37.70
2019-02-23T16:03:40.711Z,37.30
2019-02-23T16:06:09.029Z,37.70
2019-02-23T16:08:37.652Z,38.40
2019-02-23T16:11:06.012Z,38.60
2019-02-23T16:13:34.535Z,38.50
2019-02-23T16:16:02.992Z,39.10
2019-02-23T16:18:31.404Z,39.00
2019-02-23T16:20:59.727Z,40.00
2019-02-23T16:23:35.338Z,39.60
2019-02-23T16:25:58.127Z,39.80
2019-02-23T16:28:26.470Z,40.20
2019-02-23T16:30:54.726Z,40.70
2019-02-23T16:33:23.003Z,41.00
2019-02-23T16:35:52.947Z,40.50
2019-02-23T16:38:22.524Z,40.20
2019-02-23T16:40:50.441Z,40.80
2019-02-23T16:43:19.019Z,41.40
2019-02-23T16:45:47.610Z,41.40
2019-02-23T16:48:16.024Z,41.20
2019-02-23T16:50:44.427Z,41.70
2019-02-23T16:53:12.856Z,41.60
2019-02-23T16:55:51.411Z,41.70
2019-02-23T16:58:11.522Z,41.70
2019-02-23T17:00:39.872Z,41.40
2019-02-23T17:03:08.229Z,40.70
2019-02-23T17:05:36.615Z,41.00
2019-02-23T17:08:04.887Z,41.70
2019-02-23T17:10:33.483Z,41.90
2019-02-23T17:13:01.801Z,42.00
2019-02-23T17:15:30.158Z,42.20
2019-02-23T17:17:58.515Z,42.90
2019-02-23T17:20:28.095Z,42.50
2019-02-23T17:22:57.813Z,42.80
2019-02-23T17:25:27.724Z,42.80
2019-02-23T17:27:56.044Z,43.60
2019-02-23T17:30:28.768Z,43.90
2019-02-23T17:32:57.165Z,44.30
2019-02-23T17:35:25.554Z,45.00
2019-02-23T17:37:53.860Z,45.50
2019-02-23T17:40:22.609Z,45.30
2019-02-23T17:42:51.010Z,45.30
2019-02-23T17:45:19.605Z,45.60
2019-02-23T17:47:47.951Z,46.00
2019-02-23T17:50:17.589Z,46.50
2019-02-23T17:52:45.251Z,46.80
2019-02-23T17:55:13.662Z,47.20
2019-02-23T17:57:41.979Z,46.60
2019-02-23T18:00:13.191Z,46.60
2019-02-23T18:02:41.546Z,45.70
2019-02-23T18:05:13.088Z,46.60
2019-02-23T18:07:42.898Z,46.40
2019-02-23T18:10:10.566Z,47.50
2019-02-23T18:12:39.179Z,47.80
2019-02-23T18:15:12.049Z,47.20
2019-02-23T18:17:42.417Z,47.50
2019-02-23T18:20:12.659Z,47.80
2019-02-23T18:22:40.935Z,49.30
2019-02-23T18:25:09.615Z,49.70
2019-02-23T18:27:37.991Z,50.00
2019-02-23T18:30:11.432Z,49.70
2019-02-23T18:32:40.720Z,50.50
2019-02-23T18:35:08.722Z,50.50
2019-02-23T18:37:37.133Z,50.40
2019-02-23T18:40:07.310Z,51.10
2019-02-23T18:42:35.620Z,51.50
2019-02-23T18:45:05.215Z,51.50
2019-02-23T18:47:35.194Z,53.50
2019-02-23T18:50:04.112Z,53.70
2019-02-23T18:52:32.457Z,56.00
2019-02-23T18:55:00.734Z,52.30
2019-02-23T18:57:29.229Z,52.00
2019-02-23T18:59:57.509Z,52.60
2019-02-23T19:02:25.790Z,53.70
2019-02-23T19:04:54.131Z,52.00
2019-02-23T19:07:22.434Z,51.90
2019-02-23T19:09:50.785Z,51.20
2019-02-23T19:12:19.099Z,51.30
2019-02-23T19:14:47.879Z,53.20
2019-02-23T19:17:16.155Z,54.00
2019-02-23T19:19:44.503Z,52.70
2019-02-23T19:22:12.910Z,52.20
2019-02-23T19:24:41.194Z,53.70
2019-02-23T19:27:09.596Z,49.60
2019-02-23T19:29:39.513Z,47.30
2019-02-23T19:32:07.791Z,46.10
2019-02-23T19:34:36.106Z,46.70
2019-02-23T19:37:04.467Z,46.70
2019-02-23T19:39:32.822Z,47.40
2019-02-23T19:42:01.251Z,47.00
2019-02-23T19:44:29.713Z,46.80
2019-02-23T19:46:58.006Z,46.60
2019-02-23T19:49:26.387Z,47.30
2019-02-23T19:51:56.577Z,46.90
2019-02-23T19:54:24.695Z,47.70
2019-02-23T19:56:53.121Z,48.10
2019-02-23T19:59:21.510Z,47.90
2019-02-23T20:01:49.856Z,47.30
2019-02-23T20:04:18.207Z,47.90
2019-02-23T20:06:46.523Z,47.70
2019-02-23T20:09:14.806Z,48.10
2019-02-23T20:11:44.160Z,48.20
2019-02-23T20:14:12.564Z,48.80
2019-02-23T20:16:42.835Z,48.40
2019-02-23T20:19:11.242Z,48.40
2019-02-23T20:21:42.120Z,49.50
2019-02-23T20:24:10.483Z,49.40
2019-02-23T20:26:42.162Z,49.50
2019-02-23T20:29:10.576Z,49.20
2019-02-23T20:31:39.186Z,49.80
2019-02-23T20:34:07.538Z,50.70
2019-02-23T20:36:35.815Z,50.70
2019-02-23T20:39:04.949Z,51.00
2019-02-23T20:41:33.341Z,51.20
2019-02-23T20:44:01.637Z,50.90
2019-02-23T20:46:30.025Z,51.00
2019-02-23T20:48:58.497Z,51.40
2019-02-23T20:51:26.854Z,52.00
2019-02-23T20:53:55.208Z,50.90
2019-02-23T20:56:23.683Z,50.90
2019-02-23T20:58:52.131Z,51.20
2019-02-23T21:01:20.455Z,51.20
2019-02-23T21:03:48.986Z,52.40
2019-02-23T21:06:17.299Z,52.40
2019-02-23T21:08:45.654Z,52.00
2019-02-23T21:11:14.053Z,51.70
2019-02-23T21:13:44.148Z,51.90
2019-02-23T21:16:12.552Z,52.50
2019-02-23T21:18:59.821Z,53.00
2019-02-23T21:21:28.170Z,52.90
2019-02-23T21:23:59.612Z,52.70
2019-02-23T21:26:27.958Z,52.70
2019-02-23T21:28:56.275Z,52.90
2019-02-23T21:31:26.271Z,53.30
2019-02-23T21:33:57.574Z,53.30
2019-02-23T21:39:15.859Z,53.60
2019-02-23T21:41:46.964Z,53.50
2019-02-23T21:44:15.479Z,54.00
2019-02-23T21:46:43.864Z,54.10
2019-02-23T21:49:15.283Z,53.30
2019-02-23T21:51:45.207Z,53.50
2019-02-23T21:54:13.621Z,54.00
2019-02-23T21:56:50.348Z,54.60
2019-02-23T21:59:27.228Z,55.30
2019-02-23T22:01:59.059Z,55.50
2019-02-23T22:04:29.051Z,55.70
2019-02-23T22:06:59.165Z,55.60
2019-02-23T22:09:32.325Z,55.80
2019-02-23T22:12:00.695Z,56.80
2019-02-23T22:14:29.003Z,57.50
2019-02-23T22:16:57.336Z,58.10
2019-02-23T22:19:25.935Z,57.70
2019-02-23T22:21:57.020Z,57.30
2019-02-23T22:24:25.518Z,56.70
2019-02-23T22:26:53.941Z,58.20
2019-02-23T22:29:22.322Z,58.70
2019-02-23T22:32:10.167Z,59.70
2019-02-23T22:34:38.729Z,58.90
2019-02-23T22:37:08.416Z,58.50
2019-02-23T22:39:36.080Z,59.10
2019-02-23T22:42:04.376Z,59.20
2019-02-23T22:44:32.728Z,59.60
2019-02-23T22:47:01.060Z,59.30
2019-02-23T22:49:29.420Z,59.80
2019-02-23T22:51:57.897Z,60.10
2019-02-23T22:54:26.302Z,60.50
2019-02-23T22:56:55.145Z,61.10
2019-02-23T22:59:23.503Z,61.90
2019-02-23T23:01:51.860Z,63.80
2019-02-23T23:04:20.223Z,63.40
2019-02-23T23:06:48.720Z,62.90
2019-02-23T23:09:18.259Z,62.50
2019-02-23T23:11:46.542Z,62.20
2019-02-23T23:14:14.919Z,62.70
2019-02-23T23:16:43.304Z,64.00
2019-02-23T23:19:11.662Z,65.50
2019-02-23T23:21:40.099Z,64.10
2019-02-23T23:24:08.435Z,62.60
2019-02-23T23:26:39.899Z,64.10
2019-02-23T23:29:08.188Z,63.50
2019-02-23T23:31:36.541Z,64.50
2019-02-23T23:34:04.867Z,64.50
2019-02-23T23:36:33.236Z,63.80
2019-02-23T23:39:01.668Z,63.70
2019-02-23T23:41:29.991Z,63.80
2019-02-23T23:43:58.275Z,64.00
2019-02-23T23:46:26.664Z,64.20
2019-02-23T23:48:54.943Z,64.50
2019-02-23T23:51:24.935Z,66.70
2019-02-23T23:53:53.258Z,66.20
2019-02-23T23:56:21.618Z,65.80
2019-02-23T23:58:49.971Z,64.60
